Time;durP1;ratioP1;P1;durP2;ratioP2;P2;SDS_P1;SDS_P2;PMS_P1;PMS_P2;Temp;Humidity;BMP_temperature;BMP_pressure;BME280_temperature;BME280_humidity;BME280_pressure;Samples;Min_cycle;Max_cycle;Signal;HPM_P1;HPM_P2
2022/10/08 00:01:13;;;;;;;14.57;10.90;;;13.40;99.90;;;;;;4863755;29;20208;-89
2022/10/08 00:03:43;;;;;;;12.47;10.53;;;13.30;99.90;;;;;;4879007;29;20200;-89
2022/10/08 00:06:19;;;;;;;18.07;11.77;;;13.20;99.90;;;;;;4860356;29;20257;-89
2022/10/08 00:08:52;;;;;;;13.40;11.10;;;13.20;99.90;;;;;;4863512;29;20194;-88
2022/10/08 00:11:23;;;;;;;11.93;10.53;;;13.10;99.90;;;;;;4863370;29;20204;-89
2022/10/08 00:13:51;;;;;;;14.97;10.37;;;13.20;99.90;;;;;;4863287;29;20692;-90
2022/10/08 00:16:21;;;;;;;10.60;9.13;;;13.20;99.90;;;;;;4863435;29;20184;-89
2022/10/08 00:18:49;;;;;;;12.40;10.83;;;13.20;99.90;;;;;;4862419;29;20683;-89
2022/10/08 00:21:19;;;;;;;14.80;10.50;;;13.10;99.90;;;;;;4844595;29;20357;-89
2022/10/08 00:23:47;;;;;;;11.13;9.97;;;13.10;99.90;;;;;;4844546;29;20185;-89
2022/10/08 00:26:14;;;;;;;11.50;10.10;;;13.00;99.90;;;;;;4861430;29;20196;-89
2022/10/08 00:28:43;;;;;;;13.73;11.20;;;13.00;99.90;;;;;;4854991;29;20216;-89
2022/10/08 00:31:35;;;;;;;11.47;10.37;;;12.90;99.90;;;;;;4862852;29;20301;-89
2022/10/08 00:34:24;;;;;;;11.40;10.17;;;12.90;99.90;;;;;;4863135;29;20177;-89
2022/10/08 00:36:52;;;;;;;13.90;10.67;;;12.90;99.90;;;;;;4862799;29;20180;-89
2022/10/08 00:39:20;;;;;;;11.47;10.27;;;13.00;99.90;;;;;;4863080;29;20196;-89
2022/10/08 00:41:48;;;;;;;14.63;10.57;;;13.00;99.90;;;;;;4862908;29;20236;-89
2022/10/08 00:45:02;;;;;;;12.07;10.77;;;13.00;99.90;;;;;;4877236;29;20252;-89
2022/10/08 00:47:32;;;;;;;11.40;10.20;;;13.00;99.90;;;;;;4877922;29;20257;-89
2022/10/08 00:50:33;;;;;;;12.77;10.83;;;12.90;99.90;;;;;;4853552;29;20200;-89
2022/10/08 00:53:09;;;;;;;13.27;10.27;;;12.90;99.90;;;;;;4859554;29;20172;-89
2022/10/08 00:55:39;;;;;;;14.00;11.97;;;12.90;99.90;;;;;;4844108;29;20176;-89
2022/10/08 00:58:12;;;;;;;16.77;12.90;;;12.80;99.90;;;;;;4843986;29;20275;-89
2022/10/08 01:00:38;;;;;;;15.73;12.10;;;12.80;99.90;;;;;;4844124;29;20172;-89
2022/10/08 01:03:05;;;;;;;12.80;11.50;;;12.60;99.90;;;;;;4844352;29;20195;-89
2022/10/08 01:06:06;;;;;;;14.30;12.77;;;12.50;99.90;;;;;;4845879;29;20195;-90
2022/10/08 01:08:53;;;;;;;16.17;12.40;;;12.60;99.90;;;;;;4861592;29;20206;-89
2022/10/08 01:11:22;;;;;;;15.60;12.03;;;12.50;99.90;;;;;;4862661;29;20275;-89
2022/10/08 01:14:12;;;;;;;19.27;13.53;;;12.50;99.90;;;;;;4862205;29;20192;-89
2022/10/08 01:17:05;;;;;;;19.07;14.90;;;12.50;99.90;;;;;;4862076;29;20167;-89
2022/10/08 01:19:40;;;;;;;20.00;15.70;;;12.60;99.90;;;;;;4856150;29;20235;-89
2022/10/08 01:22:48;;;;;;;18.30;15.27;;;12.60;99.90;;;;;;4843805;29;20255;-89
2022/10/08 01:25:32;;;;;;;15.53;13.20;;;12.70;99.90;;;;;;4859026;29;20189;-89
2022/10/08 01:28:14;;;;;;;18.27;15.57;;;12.70;99.90;;;;;;4874291;29;20219;-89
2022/10/08 01:30:48;;;;;;;17.60;15.53;;;12.80;99.90;;;;;;4843748;29;20263;-89
2022/10/08 01:33:21;;;;;;;15.23;13.53;;;12.80;99.90;;;;;;4874580;29;20187;-89
2022/10/08 01:35:52;;;;;;;17.73;12.30;;;12.80;99.90;;;;;;4843649;29;20191;-89
2022/10/08 01:38:22;;;;;;;12.63;11.33;;;12.70;99.90;;;;;;4843255;29;20195;-89
2022/10/08 01:41:01;;;;;;;18.13;11.53;;;12.60;99.90;;;;;;4874131;29;20213;-89
2022/10/08 01:43:32;;;;;;;13.07;11.77;;;12.50;99.90;;;;;;4843017;29;20191;-89
2022/10/08 01:46:02;;;;;;;17.87;12.87;;;12.50;99.90;;;;;;4850016;29;20266;-89
2022/10/08 01:48:32;;;;;;;15.53;12.67;;;12.40;99.90;;;;;;4876150;29;20207;-89
2022/10/08 01:50:58;;;;;;;16.50;13.03;;;12.40;99.90;;;;;;4861940;29;20219;-89
2022/10/08 01:53:29;;;;;;;16.33;13.77;;;12.50;99.90;;;;;;4877300;29;20232;-89
2022/10/08 01:55:56;;;;;;;17.73;14.17;;;12.50;99.90;;;;;;4863750;29;20270;-89
2022/10/08 01:58:32;;;;;;;15.40;13.77;;;12.50;99.90;;;;;;4865223;29;20227;-89
2022/10/08 02:01:05;;;;;;;16.80;13.17;;;12.50;99.90;;;;;;4881069;29;20251;-89
2022/10/08 02:03:31;;;;;;;15.63;13.00;;;12.50;99.90;;;;;;4865583;29;20183;-88
2022/10/08 02:05:58;;;;;;;18.40;13.43;;;12.60;99.90;;;;;;4865523;29;20199;-89
2022/10/08 02:08:26;;;;;;;15.77;12.93;;;12.60;99.90;;;;;;4865458;29;20259;-89
2022/10/08 02:10:52;;;;;;;17.27;14.93;;;12.70;99.90;;;;;;4865579;29;20287;-89
2022/10/08 02:13:19;;;;;;;18.27;14.30;;;12.70;99.90;;;;;;4865372;29;20240;-89
2022/10/08 02:16:13;;;;;;;17.23;13.17;;;12.80;99.90;;;;;;4862155;29;20294;-89
2022/10/08 02:18:50;;;;;;;19.17;13.63;;;12.90;99.90;;;;;;4862182;29;20186;-89
2022/10/08 02:21:25;;;;;;;17.27;13.53;;;12.90;99.90;;;;;;4846806;29;20216;-89
2022/10/08 02:24:06;;;;;;;14.40;12.40;;;12.90;99.90;;;;;;4854619;29;20247;-89
2022/10/08 02:26:52;;;;;;;18.03;13.33;;;13.00;99.90;;;;;;4864971;29;20256;-89
2022/10/08 02:29:32;;;;;;;14.90;13.27;;;13.00;99.90;;;;;;4865317;29;20235;-89
2022/10/08 02:32:16;;;;;;;17.87;14.37;;;13.10;99.90;;;;;;4865026;29;20208;-89
2022/10/08 02:34:55;;;;;;;16.70;14.27;;;13.00;99.90;;;;;;4880648;29;20624;-89
2022/10/08 02:37:25;;;;;;;16.23;14.10;;;13.00;99.90;;;;;;4861737;29;20188;-89
2022/10/08 02:40:01;;;;;;;17.00;12.90;;;13.00;99.90;;;;;;4861906;29;20275;-89
2022/10/08 02:42:31;;;;;;;12.00;10.60;;;13.10;99.90;;;;;;4864879;29;20218;-89
2022/10/08 02:45:09;;;;;;;13.17;11.77;;;13.10;99.90;;;;;;4864975;29;20199;-89
2022/10/08 02:47:37;;;;;;;14.40;11.77;;;13.10;99.90;;;;;;4861702;29;20215;-89
2022/10/08 02:50:09;;;;;;;14.20;11.23;;;13.10;99.90;;;;;;4861676;29;20260;-89
2022/10/08 02:52:40;;;;;;;15.33;12.70;;;13.10;99.90;;;;;;4863152;29;20197;-88
2022/10/08 02:55:21;;;;;;;16.37;12.20;;;13.20;99.90;;;;;;4846056;29;20228;-89
2022/10/08 02:57:56;;;;;;;12.70;11.07;;;13.10;99.90;;;;;;4846383;29;20177;-89
2022/10/08 03:00:23;;;;;;;15.70;13.50;;;13.10;99.90;;;;;;4846396;29;20279;-89
2022/10/08 03:03:00;;;;;;;17.47;12.83;;;13.10;99.90;;;;;;4861606;29;20185;-89
2022/10/08 03:05:28;;;;;;;15.93;12.63;;;13.10;99.90;;;;;;4861512;29;20172;-89
2022/10/08 03:07:54;;;;;;;16.23;12.50;;;13.10;99.90;;;;;;4845000;29;20230;-89
2022/10/08 03:10:24;;;;;;;14.40;12.10;;;13.10;99.90;;;;;;4854105;29;20211;-89
2022/10/08 03:12:52;;;;;;;13.50;12.13;;;13.10;99.90;;;;;;4879670;29;20295;-89
2022/10/08 03:15:18;;;;;;;12.63;11.33;;;13.20;99.90;;;;;;4864339;29;20194;-89
2022/10/08 03:17:46;;;;;;;12.97;11.57;;;13.10;99.90;;;;;;4864146;29;20192;-89
2022/10/08 03:20:12;;;;;;;17.43;11.80;;;13.10;99.90;;;;;;4864001;29;20207;-89
2022/10/08 03:22:39;;;;;;;16.00;12.17;;;13.10;99.90;;;;;;4864434;29;20204;-88
2022/10/08 03:25:05;;;;;;;12.33;11.03;;;13.00;99.90;;;;;;4880182;29;20211;-89
2022/10/08 03:27:33;;;;;;;15.23;11.63;;;13.00;99.90;;;;;;4863989;29;20255;-89
2022/10/08 03:30:00;;;;;;;13.67;12.23;;;13.00;99.90;;;;;;4864489;29;20183;-89
2022/10/08 03:32:26;;;;;;;18.37;12.73;;;13.00;99.90;;;;;;4863782;29;20204;-89
2022/10/08 03:34:52;;;;;;;14.40;12.27;;;13.00;99.90;;;;;;4864449;29;20184;-89
2022/10/08 03:37:28;;;;;;;16.07;12.87;;;13.00;99.90;;;;;;4863692;29;20200;-89
2022/10/08 03:39:54;;;;;;;22.00;13.77;;;13.00;99.90;;;;;;4863991;29;20199;-89
2022/10/08 03:42:20;;;;;;;13.93;12.50;;;13.00;99.90;;;;;;4863891;29;20208;-89
2022/10/08 03:44:46;;;;;;;16.27;12.50;;;13.00;99.90;;;;;;4863891;29;20186;-89
2022/10/08 03:47:12;;;;;;;14.23;12.73;;;12.90;99.90;;;;;;4863507;29;20231;-89
2022/10/08 03:50:03;;;;;;;15.50;12.43;;;12.90;99.90;;;;;;4856558;29;20200;-89
2022/10/08 03:52:29;;;;;;;15.03;12.60;;;12.90;99.90;;;;;;4859891;29;20206;-89
2022/10/08 03:54:55;;;;;;;19.20;13.73;;;12.90;99.90;;;;;;4863670;29;20288;-89
2022/10/08 03:57:22;;;;;;;19.70;14.53;;;12.80;99.90;;;;;;4863534;29;20319;-89
2022/10/08 03:59:47;;;;;;;16.23;13.97;;;12.70;99.90;;;;;;4863505;29;20238;-88
2022/10/08 04:02:14;;;;;;;20.33;15.30;;;12.70;99.90;;;;;;4863199;29;20208;-88
2022/10/08 04:04:40;;;;;;;17.93;15.70;;;12.60;99.90;;;;;;4863587;29;20227;-88
2022/10/08 04:07:06;;;;;;;18.33;14.50;;;12.60;99.90;;;;;;4863326;29;20285;-88
2022/10/08 04:09:32;;;;;;;18.20;14.47;;;12.60;99.90;;;;;;4863504;29;20180;-88
2022/10/08 04:11:58;;;;;;;17.47;14.23;;;12.70;99.90;;;;;;4863553;29;20208;-88
2022/10/08 04:14:24;;;;;;;16.57;13.67;;;12.70;99.90;;;;;;4878808;29;20254;-88
2022/10/08 04:16:52;;;;;;;14.10;12.67;;;12.70;99.90;;;;;;4862478;29;20198;-88
2022/10/08 04:19:18;;;;;;;16.03;14.33;;;12.70;99.90;;;;;;4861893;29;20207;-88
2022/10/08 04:21:43;;;;;;;19.07;14.53;;;12.70;99.90;;;;;;4862885;29;20221;-88
2022/10/08 04:24:09;;;;;;;16.40;14.00;;;12.70;99.90;;;;;;4863120;29;20289;-88
2022/10/08 04:26:35;;;;;;;19.83;15.47;;;12.60;99.90;;;;;;4863157;29;20237;-88
2022/10/08 04:29:01;;;;;;;21.10;16.33;;;12.60;99.90;;;;;;4863352;29;20203;-88
2022/10/08 04:31:27;;;;;;;18.70;15.63;;;12.60;99.90;;;;;;4863274;29;20298;-88
2022/10/08 04:33:53;;;;;;;16.03;14.37;;;12.60;99.90;;;;;;4863003;29;20184;-88
2022/10/08 04:36:21;;;;;;;16.47;14.07;;;12.60;99.90;;;;;;4862625;29;20194;-88
2022/10/08 04:38:48;;;;;;;17.63;14.70;;;12.60;99.90;;;;;;4862647;29;20192;-88
2022/10/08 04:41:22;;;;;;;18.43;14.63;;;12.50;99.90;;;;;;4878386;29;20693;-88
2022/10/08 04:43:48;;;;;;;15.00;12.30;;;12.60;99.90;;;;;;4863092;29;20184;-88
2022/10/08 04:46:16;;;;;;;14.80;12.77;;;12.60;99.90;;;;;;4862944;29;20191;-88
2022/10/08 04:48:52;;;;;;;16.20;13.17;;;12.50;99.90;;;;;;4861747;29;20219;-88
2022/10/08 04:51:19;;;;;;;17.30;13.93;;;12.50;99.90;;;;;;4861024;29;20212;-88
2022/10/08 04:53:45;;;;;;;16.97;14.70;;;12.50;99.90;;;;;;4862753;29;20187;-88
2022/10/08 04:56:17;;;;;;;20.40;15.00;;;12.50;99.90;;;;;;4862718;29;20213;-88
2022/10/08 04:59:00;;;;;;;19.50;13.53;;;12.50;99.90;;;;;;4862680;29;20183;-88
2022/10/08 05:01:30;;;;;;;17.27;13.40;;;12.50;99.90;;;;;;4862288;29;20215;-88
2022/10/08 05:03:57;;;;;;;14.90;12.63;;;12.50;99.90;;;;;;4862448;29;20276;-88
2022/10/08 05:06:27;;;;;;;14.33;12.50;;;12.40;99.90;;;;;;4859296;29;20211;-88
2022/10/08 05:08:52;;;;;;;17.23;14.13;;;12.40;99.90;;;;;;4859397;29;20216;-88
2022/10/08 05:11:22;;;;;;;17.23;13.63;;;12.30;99.90;;;;;;4859449;29;20255;-88
2022/10/08 05:13:58;;;;;;;21.80;14.60;;;12.40;99.90;;;;;;4859085;29;20191;-88
2022/10/08 05:16:25;;;;;;;19.07;13.93;;;12.40;99.90;;;;;;4859428;29;20319;-88
2022/10/08 05:18:51;;;;;;;18.27;15.13;;;12.30;99.90;;;;;;4859772;29;20230;-88
2022/10/08 05:21:22;;;;;;;19.53;15.60;;;12.20;99.90;;;;;;4856006;29;20303;-88
2022/10/08 05:24:13;;;;;;;18.33;16.13;;;12.20;99.90;;;;;;4843777;29;20212;-88
2022/10/08 05:26:40;;;;;;;20.40;16.47;;;12.20;99.90;;;;;;4843043;29;20212;-88
2022/10/08 05:29:13;;;;;;;19.97;17.33;;;12.20;99.90;;;;;;4858840;29;20215;-87
2022/10/08 05:31:39;;;;;;;19.43;15.53;;;12.20;99.90;;;;;;4858354;29;20203;-88
2022/10/08 05:34:05;;;;;;;19.40;16.10;;;12.20;99.90;;;;;;4859244;29;20248;-88
2022/10/08 05:36:32;;;;;;;16.90;15.20;;;12.20;99.90;;;;;;4858879;29;20239;-88
2022/10/08 05:38:59;;;;;;;21.43;15.87;;;12.20;99.90;;;;;;4858858;29;20196;-88
2022/10/08 05:41:28;;;;;;;24.00;16.40;;;12.30;99.90;;;;;;4876444;29;20215;-88
2022/10/08 05:43:56;;;;;;;22.87;15.90;;;12.20;99.90;;;;;;4862467;29;20192;-88
2022/10/08 05:46:24;;;;;;;22.70;15.80;;;12.30;99.90;;;;;;4877619;29;20195;-88
2022/10/08 05:48:56;;;;;;;23.23;15.70;;;12.30;99.90;;;;;;4861709;29;20212;-88
2022/10/08 05:52:14;;;;;;;17.70;14.50;;;12.40;99.90;;;;;;4862035;29;20200;-88
2022/10/08 05:54:35;;;;;;;17.27;14.63;;;12.40;99.90;;;;;;4872269;29;20285;-88
2022/10/08 05:57:00;;;;;;;19.00;15.60;;;12.40;99.90;;;;;;4858688;29;20187;-87
2022/10/08 05:59:26;;;;;;;18.13;15.70;;;12.50;99.90;;;;;;4862199;29;20192;-88
2022/10/08 06:01:52;;;;;;;22.60;16.07;;;12.50;99.90;;;;;;4861610;29;20207;-88
2022/10/08 06:04:18;;;;;;;18.70;15.90;;;12.50;99.90;;;;;;4877353;29;20195;-88
2022/10/08 06:06:44;;;;;;;16.80;14.60;;;12.50;99.90;;;;;;4861663;29;20191;-88
2022/10/08 06:09:17;;;;;;;18.83;15.57;;;12.60;99.90;;;;;;4861804;29;20184;-88
2022/10/08 06:11:44;;;;;;;19.33;15.37;;;12.60;99.90;;;;;;4861942;29;20212;-88
2022/10/08 06:14:12;;;;;;;18.03;15.30;;;12.60;99.90;;;;;;4886740;29;20194;-89
2022/10/08 06:16:39;;;;;;;17.53;13.73;;;12.70;99.90;;;;;;4875972;29;20200;-88
2022/10/08 06:19:07;;;;;;;15.33;12.77;;;12.60;99.90;;;;;;4861832;29;20218;-88
2022/10/08 06:21:33;;;;;;;15.90;13.33;;;12.70;99.90;;;;;;4861906;29;20200;-89
2022/10/08 06:24:09;;;;;;;17.00;12.83;;;12.70;99.90;;;;;;4858546;29;20188;-89
2022/10/08 06:26:39;;;;;;;18.53;13.10;;;12.70;99.90;;;;;;4861796;29;20176;-89
2022/10/08 06:29:11;;;;;;;16.07;13.33;;;12.70;99.90;;;;;;4869217;29;20344;-88
2022/10/08 06:31:37;;;;;;;16.83;13.30;;;12.70;99.90;;;;;;4857476;29;20314;-88
2022/10/08 06:34:14;;;;;;;18.83;13.20;;;12.70;99.90;;;;;;4861656;29;20230;-89
2022/10/08 06:37:35;;;;;;;15.27;12.63;;;12.70;99.90;;;;;;4876698;29;20184;-89
2022/10/08 06:40:01;;;;;;;16.17;14.13;;;12.70;99.90;;;;;;4861571;29;20274;-89
2022/10/08 06:42:27;;;;;;;18.37;14.30;;;12.70;99.90;;;;;;4862489;29;20309;-89
2022/10/08 06:44:53;;;;;;;16.70;14.90;;;12.70;99.90;;;;;;4864852;29;20196;-89
2022/10/08 06:47:18;;;;;;;18.20;14.63;;;12.70;99.90;;;;;;4864490;29;20235;-89
2022/10/08 06:49:44;;;;;;;18.47;14.43;;;12.70;99.90;;;;;;4880067;29;20278;-89
2022/10/08 06:52:11;;;;;;;18.37;15.67;;;12.70;99.90;;;;;;4864361;29;20207;-89
2022/10/08 06:54:37;;;;;;;15.93;14.23;;;12.70;99.90;;;;;;4864251;29;20188;-89
2022/10/08 06:57:03;;;;;;;18.67;13.73;;;12.80;99.90;;;;;;4864582;29;20184;-89
2022/10/08 06:59:28;;;;;;;15.53;13.67;;;12.80;99.90;;;;;;4864762;29;20203;-89
2022/10/08 07:01:55;;;;;;;14.73;13.10;;;12.90;99.90;;;;;;4879622;29;20260;-89
2022/10/08 07:04:21;;;;;;;12.47;11.03;;;13.00;99.90;;;;;;4864802;29;20180;-89
2022/10/08 07:06:47;;;;;;;13.43;11.77;;;13.00;99.90;;;;;;4864175;29;20195;-89
2022/10/08 07:09:26;;;;;;;16.37;11.87;;;13.00;99.90;;;;;;4863978;29;20180;-89
2022/10/08 07:11:52;;;;;;;14.83;12.67;;;13.10;99.90;;;;;;4865015;29;20196;-89
2022/10/08 07:14:18;;;;;;;13.47;12.07;;;13.10;99.90;;;;;;4865235;29;20199;-89
2022/10/08 07:16:44;;;;;;;12.90;10.87;;;13.20;99.90;;;;;;4864778;29;20184;-89
2022/10/08 07:19:10;;;;;;;15.37;12.03;;;13.20;99.90;;;;;;4864834;29;20215;-89
2022/10/08 07:21:36;;;;;;;14.20;12.57;;;13.30;99.90;;;;;;4864422;29;20222;-89
2022/10/08 07:24:02;;;;;;;16.30;12.70;;;13.30;99.90;;;;;;4864207;29;20184;-89
2022/10/08 07:26:31;;;;;;;15.03;13.33;;;13.40;99.90;;;;;;4864571;29;20183;-89
2022/10/08 07:29:01;;;;;;;16.50;13.23;;;13.40;99.90;;;;;;4864061;29;20222;-84
2022/10/08 07:31:34;;;;;;;18.73;12.97;;;13.50;99.90;;;;;;4864286;29;20203;-88
2022/10/08 07:34:03;;;;;;;17.10;13.23;;;13.60;99.90;;;;;;4864307;29;20183;-89
2022/10/08 07:36:30;;;;;;;16.07;13.20;;;13.70;99.90;;;;;;4864465;29;20231;-83
2022/10/08 07:39:05;;;;;;;13.83;12.33;;;13.70;99.90;;;;;;4864027;29;20191;-88
2022/10/08 07:41:32;;;;;;;16.10;13.07;;;13.80;99.90;;;;;;4863875;29;20299;-87
2022/10/08 07:44:00;;;;;;;13.70;12.30;;;13.90;99.90;;;;;;4863973;29;20244;-87
2022/10/08 07:46:28;;;;;;;17.20;14.00;;;14.00;99.90;;;;;;4863808;29;20196;-87
2022/10/08 07:48:55;;;;;;;19.17;12.50;;;14.10;99.90;;;;;;4863458;29;20216;-87
2022/10/08 07:51:21;;;;;;;13.23;11.57;;;14.10;99.90;;;;;;4863870;29;20204;-86
2022/10/08 07:53:48;;;;;;;22.73;14.10;;;14.20;99.90;;;;;;4879134;29;20172;-86
2022/10/08 07:56:16;;;;;;;15.43;13.60;;;14.20;99.90;;;;;;4863733;29;20190;-86
2022/10/08 07:58:42;;;;;;;15.30;12.67;;;14.30;99.90;;;;;;4878847;29;20211;-87
2022/10/08 08:01:12;;;;;;;15.47;13.10;;;14.30;99.90;;;;;;4863653;29;20216;-87
2022/10/08 08:03:39;;;;;;;13.80;11.90;;;14.40;99.90;;;;;;4879109;29;20184;-87
2022/10/08 08:06:08;;;;;;;14.63;12.17;;;14.50;99.90;;;;;;4863593;29;20196;-86
2022/10/08 08:08:35;;;;;;;20.07;12.07;;;14.60;99.90;;;;;;4863355;29;20218;-87
2022/10/08 08:11:04;;;;;;;13.57;11.60;;;14.70;99.90;;;;;;4863105;29;20677;-87
2022/10/08 08:13:31;;;;;;;17.30;12.10;;;14.80;99.90;;;;;;4863071;29;20216;-87
2022/10/08 08:15:59;;;;;;;14.50;11.90;;;14.90;99.90;;;;;;4863574;29;20233;-86
2022/10/08 08:18:29;;;;;;;13.27;11.47;;;14.90;99.90;;;;;;4863200;29;20222;-87
2022/10/08 08:21:03;;;;;;;11.87;10.40;;;14.90;99.90;;;;;;4846238;29;20224;-87
2022/10/08 08:23:35;;;;;;;13.40;12.00;;;14.90;99.90;;;;;;4844599;29;20197;-87
2022/10/08 08:26:03;;;;;;;15.00;11.93;;;14.90;99.90;;;;;;4844842;29;20586;-86
2022/10/08 08:28:29;;;;;;;12.97;11.27;;;15.00;99.90;;;;;;4844816;29;20311;-87
2022/10/08 08:31:08;;;;;;;13.33;11.10;;;15.10;99.90;;;;;;4844628;29;20310;-87
2022/10/08 08:33:34;;;;;;;14.67;11.00;;;15.10;99.90;;;;;;4843843;29;20256;-87
2022/10/08 08:36:00;;;;;;;15.10;11.80;;;15.20;99.90;;;;;;4844417;29;20193;-87
2022/10/08 08:38:26;;;;;;;13.73;11.17;;;15.10;99.90;;;;;;4844242;29;20260;-87
2022/10/08 08:40:55;;;;;;;12.07;10.77;;;15.20;99.90;;;;;;4844734;29;20212;-87
2022/10/08 08:43:23;;;;;;;12.43;10.27;;;15.30;99.90;;;;;;4844347;29;20250;-87
2022/10/08 08:45:55;;;;;;;15.07;10.27;;;15.40;99.90;;;;;;4874928;29;20192;-87
2022/10/08 08:48:25;;;;;;;12.50;9.80;;;15.60;99.90;;;;;;4843736;29;20224;-87
2022/10/08 08:50:55;;;;;;;14.60;10.43;;;15.70;99.90;;;;;;4874824;29;20661;-87
2022/10/08 08:53:22;;;;;;;12.37;9.30;;;15.80;99.90;;;;;;4862747;29;20180;-87
2022/10/08 08:55:55;;;;;;;12.13;8.30;;;15.90;99.90;;;;;;4862707;29;20275;-87
2022/10/08 08:58:41;;;;;;;10.77;8.83;;;16.10;99.90;;;;;;4862175;29;20188;-87
2022/10/08 09:01:07;;;;;;;10.40;8.27;;;16.20;99.90;;;;;;4862276;29;20670;-87
2022/10/08 09:03:48;;;;;;;10.87;7.17;;;16.30;99.90;;;;;;4862352;29;20190;-87
2022/10/08 09:06:18;;;;;;;11.27;7.93;;;16.30;99.90;;;;;;4861873;29;20701;-87
2022/10/08 09:09:28;;;;;;;14.13;8.77;;;16.20;99.90;;;;;;4861855;29;20212;-87
2022/10/08 09:11:54;;;;;;;10.10;6.57;;;16.20;99.90;;;;;;4857303;29;20222;-87
2022/10/08 09:14:44;;;;;;;9.37;6.10;;;16.20;99.90;;;;;;4861953;29;20184;-87
2022/10/08 09:17:16;;;;;;;8.23;5.97;;;16.20;99.90;;;;;;4861985;29;20184;-88
2022/10/08 09:19:42;;;;;;;7.20;4.90;;;16.20;99.90;;;;;;4862026;29;20214;-87
2022/10/08 09:22:35;;;;;;;10.00;4.50;;;16.20;99.90;;;;;;4862572;29;20211;-87
2022/10/08 09:25:11;;;;;;;8.53;4.50;;;16.20;99.90;;;;;;4862167;29;20202;-87
2022/10/08 09:27:54;;;;;;;7.30;4.40;;;16.20;99.90;;;;;;4862564;29;20214;-87
2022/10/08 09:30:28;;;;;;;7.32;4.63;;;16.20;99.90;;;;;;4862403;29;20176;-88
2022/10/08 09:33:15;;;;;;;9.47;5.60;;;16.20;99.90;;;;;;4861563;29;20207;-88
2022/10/08 09:35:47;;;;;;;10.53;5.63;;;16.30;99.90;;;;;;4853217;29;20259;-88
2022/10/08 09:38:29;;;;;;;12.10;5.90;;;16.40;99.90;;;;;;4862035;29;20279;-88
2022/10/08 09:44:21;;;;;;;9.73;5.35;;;16.60;99.90;;;;;;4878065;29;20224;-88
2022/10/08 09:46:52;;;;;;;7.97;5.10;;;16.60;99.90;;;;;;4861997;29;20652;-88
2022/10/08 09:49:25;;;;;;;7.40;4.95;;;16.70;99.90;;;;;;4862612;29;20184;-88
2022/10/08 09:51:52;;;;;;;10.32;4.47;;;16.80;99.90;;;;;;4877722;29;20204;-88
2022/10/08 09:54:25;;;;;;;9.27;4.85;;;16.90;99.90;;;;;;4862893;29;20215;-88
2022/10/08 09:56:54;;;;;;;8.02;4.65;;;17.00;99.90;;;;;;4862129;29;20176;-88
2022/10/08 09:59:23;;;;;;;10.57;4.25;;;17.20;99.90;;;;;;4862395;29;20176;-88
2022/10/08 10:01:50;;;;;;;6.95;4.13;;;17.30;99.90;;;;;;4862380;29;20260;-89
2022/10/08 10:04:36;;;;;;;7.00;3.80;;;17.50;99.90;;;;;;4878171;29;20192;-84
2022/10/08 10:07:04;;;;;;;5.47;2.53;;;17.60;99.90;;;;;;4862250;29;20236;-88
2022/10/08 10:09:36;;;;;;;7.88;2.22;;;17.70;99.90;;;;;;4862497;29;20184;-88
2022/10/08 10:12:10;;;;;;;4.70;2.03;;;17.80;99.90;;;;;;4861960;29;20208;-88
2022/10/08 10:14:47;;;;;;;5.82;2.20;;;17.90;99.90;;;;;;4861803;29;20176;-88
2022/10/08 10:17:59;;;;;;;5.40;2.28;;;18.00;99.90;;;;;;4863663;29;20203;-88
2022/10/08 10:20:34;;;;;;;7.35;3.75;;;18.00;99.90;;;;;;4865350;29;20291;-88
2022/10/08 10:23:41;;;;;;;173.00;118.43;;;18.10;99.90;;;;;;4880107;29;20308;-88
2022/10/08 10:26:18;;;;;;;118.82;85.72;;;18.10;99.90;;;;;;4827250;29;20197;-88
2022/10/08 10:28:51;;;;;;;20.92;14.93;;;18.00;99.90;;;;;;4842474;29;20241;-88
2022/10/08 10:31:24;;;;;;;12.75;8.50;;;18.00;99.90;;;;;;4857639;29;20302;-88
2022/10/08 10:33:58;;;;;;;5.55;2.45;;;18.10;99.90;;;;;;4865219;29;20207;-88
2022/10/08 10:36:29;;;;;;;6.28;2.17;;;18.10;99.90;;;;;;4865248;29;20182;-88
2022/10/08 10:39:25;;;;;;;4.68;2.00;;;18.10;99.90;;;;;;4864872;29;20270;-88
2022/10/08 10:41:56;;;;;;;4.15;2.15;;;18.10;99.90;;;;;;4861471;29;20220;-88
2022/10/08 10:44:30;;;;;;;6.68;2.38;;;18.10;99.90;;;;;;4865200;29;20208;-88
2022/10/08 10:46:58;;;;;;;5.93;2.20;;;18.10;99.90;;;;;;4864563;29;20180;-88
2022/10/08 10:49:37;;;;;;;7.28;2.45;;;18.10;99.90;;;;;;4865024;29;20216;-88
2022/10/08 10:52:20;;;;;;;5.45;2.10;;;18.00;99.90;;;;;;4864026;29;20231;-89
2022/10/08 10:55:05;;;;;;;4.70;2.28;;;17.90;99.90;;;;;;4864660;29;20176;-88
2022/10/08 10:58:03;;;;;;;5.05;2.10;;;17.90;99.90;;;;;;4864468;29;20716;-88
2022/10/08 11:00:32;;;;;;;4.75;2.00;;;17.90;99.90;;;;;;4864936;29;20641;-88
2022/10/08 11:03:14;;;;;;;6.38;2.38;;;18.00;99.90;;;;;;4864623;29;20235;-88
2022/10/08 11:05:42;;;;;;;4.10;1.83;;;18.10;99.90;;;;;;4865043;29;20169;-88
2022/10/08 11:08:11;;;;;;;4.43;1.90;;;18.20;99.90;;;;;;4864563;29;20208;-88
2022/10/08 11:11:07;;;;;;;3.72;1.77;;;18.20;99.90;;;;;;4864786;29;20191;-88
2022/10/08 11:13:55;;;;;;;5.20;1.83;;;18.20;99.90;;;;;;4863199;29;20188;-88
2022/10/08 11:16:40;;;;;;;5.25;2.10;;;18.30;99.90;;;;;;4863890;29;20188;-88
2022/10/08 11:19:24;;;;;;;4.45;2.22;;;18.50;99.90;;;;;;4879786;29;20713;-88
2022/10/08 11:22:02;;;;;;;4.15;1.90;;;18.60;99.90;;;;;;4864223;29;20303;-88
2022/10/08 11:25:07;;;;;;;4.78;2.00;;;18.80;99.90;;;;;;4864396;29;20176;-88
2022/10/08 11:28:14;;;;;;;3.10;1.90;;;18.90;99.90;;;;;;4859940;29;20230;-88
2022/10/08 11:30:48;;;;;;;6.25;1.90;;;19.10;99.90;;;;;;4874111;29;20192;-88
2022/10/08 11:33:16;;;;;;;5.22;2.78;;;19.20;99.90;;;;;;4864138;29;20184;-88
2022/10/08 11:36:06;;;;;;;5.45;2.15;;;19.30;99.90;;;;;;4864055;29;20191;-88
2022/10/08 11:39:13;;;;;;;4.50;2.00;;;19.30;99.90;;;;;;4864213;29;20176;-88
2022/10/08 11:41:48;;;;;;;6.47;2.20;;;19.20;99.90;;;;;;4862807;29;20212;-88
2022/10/08 11:44:15;;;;;;;6.82;2.42;;;19.20;99.90;;;;;;4863860;29;20625;-88
2022/10/08 11:46:41;;;;;;;4.70;1.90;;;19.30;99.90;;;;;;4863594;29;20184;-88
2022/10/08 11:49:25;;;;;;;4.78;2.35;;;19.50;99.90;;;;;;4863808;29;20275;-88
2022/10/08 11:51:52;;;;;;;6.00;2.20;;;19.60;99.90;;;;;;4864152;29;20255;-88
2022/10/08 11:54:33;;;;;;;6.75;2.40;;;19.60;99.90;;;;;;4863855;29;20271;-88
2022/10/08 11:57:18;;;;;;;5.50;2.33;;;19.50;99.90;;;;;;4863853;29;20176;-88
2022/10/08 12:00:26;;;;;;;6.05;2.13;;;19.40;99.90;;;;;;4863761;29;20269;-88
2022/10/08 12:02:54;;;;;;;5.90;2.22;;;19.30;99.90;;;;;;4863893;29;20187;-88
2022/10/08 12:05:32;;;;;;;3.50;2.03;;;19.20;99.90;;;;;;4863614;29;20184;-88
2022/10/08 12:08:02;;;;;;;4.15;2.40;;;19.20;99.90;;;;;;4863254;29;20215;-88
2022/10/08 12:10:38;;;;;;;4.78;2.10;;;18.90;99.90;;;;;;4878796;29;20183;-88
2022/10/08 12:13:25;;;;;;;7.30;2.13;;;18.90;99.90;;;;;;4863625;29;20176;-88
2022/10/08 12:15:52;;;;;;;6.20;2.45;;;19.00;99.90;;;;;;4863448;29;20172;-88
2022/10/08 12:18:21;;;;;;;4.70;2.17;;;19.10;99.90;;;;;;4862882;29;20188;-89
2022/10/08 12:21:15;;;;;;;4.35;1.67;;;19.30;99.90;;;;;;4862633;29;20219;-88
2022/10/08 12:23:42;;;;;;;6.05;1.92;;;19.60;99.90;;;;;;4863317;29;20202;-88
2022/10/08 12:26:11;;;;;;;3.17;1.77;;;19.90;99.90;;;;;;4863216;29;20184;-88
2022/10/08 12:28:44;;;;;;;6.10;2.20;;;20.10;99.90;;;;;;4862908;29;20215;-88
2022/10/08 12:31:26;;;;;;;5.03;2.20;;;19.90;99.90;;;;;;4863218;29;20219;-88
2022/10/08 12:34:00;;;;;;;4.95;1.90;;;19.60;99.90;;;;;;4863193;29;20192;-88
2022/10/08 12:36:43;;;;;;;4.55;2.17;;;19.30;99.90;;;;;;4862948;29;20172;-89
2022/10/08 12:39:30;;;;;;;7.43;2.67;;;19.00;99.90;;;;;;4863229;29;20184;-89
2022/10/08 12:42:32;;;;;;;4.93;2.00;;;18.70;99.90;;;;;;4862841;29;20216;-88
2022/10/08 12:45:28;;;;;;;5.32;2.17;;;18.50;99.90;;;;;;4855108;29;20223;-88
2022/10/08 12:48:12;;;;;;;7.38;2.55;;;18.50;99.90;;;;;;4843687;29;20218;-88
2022/10/08 12:50:57;;;;;;;10.05;2.13;;;18.40;99.90;;;;;;4843971;29;20187;-88
2022/10/08 12:53:23;;;;;;;5.07;1.98;;;18.10;99.90;;;;;;4844468;29;20181;-88
2022/10/08 12:55:54;;;;;;;5.50;2.00;;;18.10;99.90;;;;;;4844375;29;20188;-88
2022/10/08 12:58:32;;;;;;;5.18;2.25;;;18.00;99.90;;;;;;4844211;29;20233;-88
2022/10/08 13:01:01;;;;;;;6.10;2.22;;;18.00;99.90;;;;;;4844166;29;20204;-88
2022/10/08 13:03:27;;;;;;;5.80;1.90;;;18.00;99.90;;;;;;4844152;29;20195;-89
2022/10/08 13:05:56;;;;;;;6.50;2.10;;;18.00;99.90;;;;;;4844358;29;20273;-88
2022/10/08 13:08:31;;;;;;;9.88;2.15;;;18.00;99.90;;;;;;4844224;29;20208;-88